Tim Quigg — WDB6570 — position and weather

sailwx.info

Track history (hours):
 
Tides and Currents Weather Stations Pressure Air Temp Water Temp Dewpoint Dewpoint Depression Visibility Wind Speed Wind Dir Waves Ship Positions

Tim Quigg

Owner: Harley Marine Services, Inc, Seattle, WA. More information available from US FCC via Universal Licensing System and Coast Guard Vessel Documentation Center.

Last reported at 2015-Feb-01 03:33 UTC. Time now 2015-Feb-01 04:07 UTC.
Position N 33°46' W 118°15'.

; draft 7.5 m.

Type: Tug. MMSI: 366926740.

Date/timePositionNaut miles runAvg speedWind from/ knotsBaromVisibWave heightAir tempDewpointWater temp
2015-Feb-01 03:33N 33°46' W 118°15'2 0.2
2015-Jan-31 17:08N 33°45' W 118°13'1 1.7
2015-Jan-31 16:33N 33°45' W 118°14'1 1.4
2015-Jan-31 15:31N 33°45' W 118°16'1 0.1
2015-Jan-31 03:05N 33°44' W 118°16'0 0.1
2015-Jan-31 02:16N 33°44' W 118°16'0 0.0
2015-Jan-31 00:31N 33°44' W 118°16'0 0.0
2015-Jan-30 23:27N 33°44' W 118°16'0 0.0
2015-Jan-30 22:30N 33°44' W 118°16'0 0.0
2015-Jan-30 21:13N 33°44' W 118°16'1 1.2
2015-Jan-30 20:11N 33°45' W 118°16'1 0.3
2015-Jan-30 16:31N 33°44' W 118°16'0 0.0
2015-Jan-30 08:03N 33°44' W 118°16'0 0.0
2015-Jan-30 06:27N 33°44' W 118°16'0 0.0
2015-Jan-30 05:23N 33°44' W 118°16'0 0.0
2015-Jan-30 04:22N 33°44' W 118°16'0 0.0
2015-Jan-30 03:17N 33°44' W 118°16'0 0.0
2015-Jan-30 02:07N 33°44' W 118°16'0 0.0
2015-Jan-29 23:27N 33°44' W 118°16'0 0.0
2015-Jan-29 22:33N 33°44' W 118°16'0 0.0
2015-Jan-29 21:33N 33°44' W 118°16'0 0.0
2015-Jan-29 20:33N 33°44' W 118°16'0 0.0
2015-Jan-29 19:19N 33°44' W 118°16'0 0.0
2015-Jan-29 18:33N 33°44' W 118°16'0 0.0
2015-Jan-29 17:11N 33°44' W 118°16'0 0.0
2015-Jan-29 16:33N 33°44' W 118°16'0 0.1
2015-Jan-29 15:18N 33°44' W 118°16'0 0.0
2015-Jan-29 14:23N 33°44' W 118°16'1 0.5
2015-Jan-29 12:25N 33°44' W 118°17'1 1.5
2015-Jan-29 11:32N 33°46' W 118°16'2 1.7
2015-Jan-29 10:26N 33°44' W 118°16'1 0.7
2015-Jan-29 09:33N 33°44' W 118°16'0 0.0
2015-Jan-29 07:32N 33°44' W 118°16'0 0.0
2015-Jan-29 06:18N 33°44' W 118°16'1 0.2
2015-Jan-29 03:26N 33°43' W 118°16'1 1.7
2015-Jan-29 02:33N 33°45' W 118°17'9 2.9
2015-Jan-28 23:28N 33°44' W 118°06'5 1.0
2015-Jan-28 18:10N 33°44' W 118°12'3 4.5
2015-Jan-28 17:31N 33°44' W 118°16'3 1.0
2015-Jan-28 14:34N 33°45' W 118°12'0 0.0
2015-Jan-28 13:25N 33°45' W 118°12'2 1.9
2015-Jan-28 12:28N 33°43' W 118°11'1 1.1
2015-Jan-28 11:23N 33°44' W 118°12'0 0.0
2015-Jan-28 10:31N 33°44' W 118°12'0 0.0
2015-Jan-28 09:32N 33°44' W 118°12'0 0.0
2015-Jan-28 08:19N 33°44' W 118°12'0 0.0
2015-Jan-28 07:22N 33°44' W 118°12'3 2.3
2015-Jan-28 06:11N 33°43' W 118°14'1 0.8
2015-Jan-28 04:31N 33°44' W 118°16'0 0.1
2015-Jan-28 03:30N 33°44' W 118°16'5 5.2
2015-Jan-28 02:33N 33°44' W 118°10'0 0.0
2015-Jan-28 01:33N 33°44' W 118°10'0 0.1
2015-Jan-28 00:33N 33°44' W 118°10'0 0.0
2015-Jan-27 23:33N 33°44' W 118°10'0 0.0
2015-Jan-27 22:32N 33°44' W 118°10'0 0.0
2015-Jan-27 21:26N 33°44' W 118°10'0 0.0
2015-Jan-27 20:30N 33°44' W 118°10'3 0.2
2015-Jan-27 02:10N 33°44' W 118°13'2 0.5
2015-Jan-26 22:29N 33°44' W 118°16'2 0.3
2015-Jan-26 14:30N 33°44' W 118°13'1 0.6
2015-Jan-26 12:33N 33°44' W 118°12'2 0.9
2015-Jan-26 10:31N 33°46' W 118°13'2 0.3
2015-Jan-26 03:21N 33°45' W 118°16'1 0.3
2015-Jan-26 01:33N 33°46' W 118°15'3 0.2
2015-Jan-25 13:31N 33°44' W 118°13'1 0.6
2015-Jan-25 12:10N 33°45' W 118°12'0 0.0
2015-Jan-25 09:28N 33°45' W 118°12'3 1.6
2015-Jan-25 07:31N 33°45' W 118°16'0 0.1
2015-Jan-25 03:22N 33°45' W 118°17'3 1.1
2015-Jan-25 00:32N 33°45' W 118°13'1 1.4
2015-Jan-24 23:33N 33°47' W 118°13'2 1.5
2015-Jan-24 22:33N 33°45' W 118°13'1 0.3
2015-Jan-24 20:33N 33°46' W 118°13'1 0.7
2015-Jan-24 19:33N 33°46' W 118°13'3 0.3
2015-Jan-24 12:10N 33°45' W 118°16'2 0.5
2015-Jan-24 08:23N 33°44' W 118°16'2 2.1
2015-Jan-24 07:33N 33°45' W 118°16'2 2.2
2015-Jan-24 06:33N 33°46' W 118°13'1 1.5
2015-Jan-24 05:33N 33°44' W 118°13'2 1.0
2015-Jan-24 03:33N 33°44' W 118°16'0 0.0
2015-Jan-24 02:33N 33°44' W 118°16'0 0.0
2015-Jan-23 18:31N 33°44' W 118°16'0 0.0
2015-Jan-23 17:33N 33°44' W 118°16'0 0.0
2015-Jan-23 15:21N 33°44' W 118°16'2 2.6
2015-Jan-23 14:29N 33°44' W 118°13'2 2.2
2015-Jan-23 13:33N 33°46' W 118°13'3 3.0
2015-Jan-23 12:32N 33°44' W 118°11'3 3.3
2015-Jan-23 11:33N 33°46' W 118°13'0 0.0
2015-Jan-23 10:33N 33°46' W 118°13'0 0.0
2015-Jan-23 09:27N 33°46' W 118°13'0 0.3
2015-Jan-23 08:26N 33°47' W 118°13'4 2.8
2015-Jan-23 07:09N 33°43' W 118°14'2 2.6
2015-Jan-23 06:32N 33°44' W 118°16'0 0.2
2015-Jan-23 05:33N 33°44' W 118°16'0 0.0
2015-Jan-23 04:33N 33°44' W 118°16'2 1.6
2015-Jan-23 03:33N 33°46' W 118°16'1 0.7
2015-Jan-23 02:33N 33°45' W 118°16'1 0.4
2015-Jan-22 23:32N 33°44' W 118°16'0 0.1
2015-Jan-22 22:29N 33°44' W 118°16'0 0.0
2015-Jan-22 21:27N 33°44' W 118°16'2 2.3
2015-Jan-22 20:33N 33°46' W 118°16'2 2.1
2015-Jan-22 19:33N 33°44' W 118°16'0 0.0
2015-Jan-22 18:33N 33°44' W 118°16'0 0.0
2015-Jan-22 17:33N 33°44' W 118°16'0 0.0
2015-Jan-22 16:33N 33°44' W 118°16'0 0.0
2015-Jan-22 15:27N 33°44' W 118°16'0 0.0
2015-Jan-22 14:31N 33°44' W 118°16'0 0.0
2015-Jan-22 13:10N 33°44' W 118°16'0 0.0
2015-Jan-22 12:33N 33°44' W 118°16'0 0.0
2015-Jan-22 11:32N 33°44' W 118°16'0 0.0
2015-Jan-22 10:33N 33°44' W 118°16'0 0.0
2015-Jan-22 09:33N 33°44' W 118°16'0 0.0
2015-Jan-22 08:33N 33°44' W 118°16'0 0.0
2015-Jan-22 07:33N 33°44' W 118°16'0 0.0
2015-Jan-22 06:33N 33°44' W 118°16'0 0.0
2015-Jan-22 05:33N 33°44' W 118°16'2 1.5
2015-Jan-22 04:33N 33°45' W 118°16'  
Track history (hours):
 
Tides and Currents Weather Stations Pressure Air Temp Water Temp Dewpoint Dewpoint Depression Visibility Wind Speed Wind Dir Waves Ship Positions

Tim Quigg

Owner: Harley Marine Services, Inc, Seattle, WA. More information available from US FCC via Universal Licensing System and Coast Guard Vessel Documentation Center.

Last reported at 2015-Feb-01 03:33 UTC. Time now 2015-Feb-01 04:07 UTC.
Position N 33°46' W 118°15'.

; draft 7.5 m.

Type: Tug. MMSI: 366926740.

Date/timePositionNaut miles runAvg speedWind from/ knotsBaromVisibWave heightAir tempDewpointWater temp
2015-Feb-01 03:33N 33°46' W 118°15'2 0.2
2015-Jan-31 17:08N 33°45' W 118°13'1 1.7
2015-Jan-31 16:33N 33°45' W 118°14'1 1.4
2015-Jan-31 15:31N 33°45' W 118°16'1 0.1
2015-Jan-31 03:05N 33°44' W 118°16'0 0.1
2015-Jan-31 02:16N 33°44' W 118°16'0 0.0
2015-Jan-31 00:31N 33°44' W 118°16'0 0.0
2015-Jan-30 23:27N 33°44' W 118°16'0 0.0
2015-Jan-30 22:30N 33°44' W 118°16'0 0.0
2015-Jan-30 21:13N 33°44' W 118°16'1 1.2
2015-Jan-30 20:11N 33°45' W 118°16'1 0.3
2015-Jan-30 16:31N 33°44' W 118°16'0 0.0
2015-Jan-30 08:03N 33°44' W 118°16'0 0.0
2015-Jan-30 06:27N 33°44' W 118°16'0 0.0
2015-Jan-30 05:23N 33°44' W 118°16'0 0.0
2015-Jan-30 04:22N 33°44' W 118°16'0 0.0
2015-Jan-30 03:17N 33°44' W 118°16'0 0.0
2015-Jan-30 02:07N 33°44' W 118°16'0 0.0
2015-Jan-29 23:27N 33°44' W 118°16'0 0.0
2015-Jan-29 22:33N 33°44' W 118°16'0 0.0
2015-Jan-29 21:33N 33°44' W 118°16'0 0.0
2015-Jan-29 20:33N 33°44' W 118°16'0 0.0
2015-Jan-29 19:19N 33°44' W 118°16'0 0.0
2015-Jan-29 18:33N 33°44' W 118°16'0 0.0
2015-Jan-29 17:11N 33°44' W 118°16'0 0.0
2015-Jan-29 16:33N 33°44' W 118°16'0 0.1
2015-Jan-29 15:18N 33°44' W 118°16'0 0.0
2015-Jan-29 14:23N 33°44' W 118°16'1 0.5
2015-Jan-29 12:25N 33°44' W 118°17'1 1.5
2015-Jan-29 11:32N 33°46' W 118°16'2 1.7
2015-Jan-29 10:26N 33°44' W 118°16'1 0.7
2015-Jan-29 09:33N 33°44' W 118°16'0 0.0
2015-Jan-29 07:32N 33°44' W 118°16'0 0.0
2015-Jan-29 06:18N 33°44' W 118°16'1 0.2
2015-Jan-29 03:26N 33°43' W 118°16'1 1.7
2015-Jan-29 02:33N 33°45' W 118°17'9 2.9
2015-Jan-28 23:28N 33°44' W 118°06'5 1.0
2015-Jan-28 18:10N 33°44' W 118°12'3 4.5
2015-Jan-28 17:31N 33°44' W 118°16'3 1.0
2015-Jan-28 14:34N 33°45' W 118°12'0 0.0
2015-Jan-28 13:25N 33°45' W 118°12'2 1.9
2015-Jan-28 12:28N 33°43' W 118°11'1 1.1
2015-Jan-28 11:23N 33°44' W 118°12'0 0.0
2015-Jan-28 10:31N 33°44' W 118°12'0 0.0
2015-Jan-28 09:32N 33°44' W 118°12'0 0.0
2015-Jan-28 08:19N 33°44' W 118°12'0 0.0
2015-Jan-28 07:22N 33°44' W 118°12'3 2.3
2015-Jan-28 06:11N 33°43' W 118°14'1 0.8
2015-Jan-28 04:31N 33°44' W 118°16'0 0.1
2015-Jan-28 03:30N 33°44' W 118°16'5 5.2
2015-Jan-28 02:33N 33°44' W 118°10'0 0.0
2015-Jan-28 01:33N 33°44' W 118°10'0 0.1
2015-Jan-28 00:33N 33°44' W 118°10'0 0.0
2015-Jan-27 23:33N 33°44' W 118°10'0 0.0
2015-Jan-27 22:32N 33°44' W 118°10'0 0.0
2015-Jan-27 21:26N 33°44' W 118°10'0 0.0
2015-Jan-27 20:30N 33°44' W 118°10'3 0.2
2015-Jan-27 02:10N 33°44' W 118°13'2 0.5
2015-Jan-26 22:29N 33°44' W 118°16'2 0.3
2015-Jan-26 14:30N 33°44' W 118°13'1 0.6
2015-Jan-26 12:33N 33°44' W 118°12'2 0.9
2015-Jan-26 10:31N 33°46' W 118°13'2 0.3
2015-Jan-26 03:21N 33°45' W 118°16'1 0.3
2015-Jan-26 01:33N 33°46' W 118°15'3 0.2
2015-Jan-25 13:31N 33°44' W 118°13'1 0.6
2015-Jan-25 12:10N 33°45' W 118°12'0 0.0
2015-Jan-25 09:28N 33°45' W 118°12'3 1.6
2015-Jan-25 07:31N 33°45' W 118°16'0 0.1
2015-Jan-25 03:22N 33°45' W 118°17'3 1.1
2015-Jan-25 00:32N 33°45' W 118°13'1 1.4
2015-Jan-24 23:33N 33°47' W 118°13'2 1.5
2015-Jan-24 22:33N 33°45' W 118°13'1 0.3
2015-Jan-24 20:33N 33°46' W 118°13'1 0.7
2015-Jan-24 19:33N 33°46' W 118°13'3 0.3
2015-Jan-24 12:10N 33°45' W 118°16'2 0.5
2015-Jan-24 08:23N 33°44' W 118°16'2 2.1
2015-Jan-24 07:33N 33°45' W 118°16'2 2.2
2015-Jan-24 06:33N 33°46' W 118°13'1 1.5
2015-Jan-24 05:33N 33°44' W 118°13'2 1.0
2015-Jan-24 03:33N 33°44' W 118°16'0 0.0
2015-Jan-24 02:33N 33°44' W 118°16'0 0.0
2015-Jan-23 18:31N 33°44' W 118°16'0 0.0
2015-Jan-23 17:33N 33°44' W 118°16'0 0.0
2015-Jan-23 15:21N 33°44' W 118°16'2 2.6
2015-Jan-23 14:29N 33°44' W 118°13'2 2.2
2015-Jan-23 13:33N 33°46' W 118°13'3 3.0
2015-Jan-23 12:32N 33°44' W 118°11'3 3.3
2015-Jan-23 11:33N 33°46' W 118°13'0 0.0
2015-Jan-23 10:33N 33°46' W 118°13'0 0.0
2015-Jan-23 09:27N 33°46' W 118°13'0 0.3
2015-Jan-23 08:26N 33°47' W 118°13'4 2.8
2015-Jan-23 07:09N 33°43' W 118°14'2 2.6
2015-Jan-23 06:32N 33°44' W 118°16'0 0.2
2015-Jan-23 05:33N 33°44' W 118°16'0 0.0
2015-Jan-23 04:33N 33°44' W 118°16'2 1.6
2015-Jan-23 03:33N 33°46' W 118°16'1 0.7
2015-Jan-23 02:33N 33°45' W 118°16'1 0.4
2015-Jan-22 23:32N 33°44' W 118°16'0 0.1
2015-Jan-22 22:29N 33°44' W 118°16'0 0.0
2015-Jan-22 21:27N 33°44' W 118°16'2 2.3
2015-Jan-22 20:33N 33°46' W 118°16'2 2.1
2015-Jan-22 19:33N 33°44' W 118°16'0 0.0
2015-Jan-22 18:33N 33°44' W 118°16'0 0.0
2015-Jan-22 17:33N 33°44' W 118°16'0 0.0
2015-Jan-22 16:33N 33°44' W 118°16'0 0.0
2015-Jan-22 15:27N 33°44' W 118°16'0 0.0
2015-Jan-22 14:31N 33°44' W 118°16'0 0.0
2015-Jan-22 13:10N 33°44' W 118°16'0 0.0
2015-Jan-22 12:33N 33°44' W 118°16'0 0.0
2015-Jan-22 11:32N 33°44' W 118°16'0 0.0
2015-Jan-22 10:33N 33°44' W 118°16'0 0.0
2015-Jan-22 09:33N 33°44' W 118°16'0 0.0
2015-Jan-22 08:33N 33°44' W 118°16'0 0.0
2015-Jan-22 07:33N 33°44' W 118°16'0 0.0
2015-Jan-22 06:33N 33°44' W 118°16'0 0.0
2015-Jan-22 05:33N 33°44' W 118°16'2 1.5
2015-Jan-22 04:33N 33°45' W 118°16'  

Dump ship's entire track history